Jazz CRJ9 at San Diego on Sep 28th 2018, electrical problems

Last Update: October 5, 2018 / 19:52:43 GMT/Zulu time

Bookmark this article
Incident Facts

Date of incident
Sep 28, 2018

Classification
Incident

Flight number
QK-8667

Aircraft Registration
C-FJZD

ICAO Type Designator
CRJ9

Airport ICAO Code
KSAN

A Jazz Canadair CRJ-900, registration C-FJZD performing flight QK-8667 from San Diego,CA (USA) to Vancouver,BC (Canada) with 73 people on board, was climbing through 10,000 feet MSL out of San Diego's runway 27 when the crew received a caution light for the DC Emergency bus prompting the crew to stop the climb at 12,000 feet MSL. The crew did not declare emergency, however, ATC did declare emergency for the aircraft considering how many systems could be lost due to the failure. The crew requested an ILS approach to runway 09 due to ceilings being below the operator's minima for the non-precision approaches. The aircraft landed safely on runway 09 about 21 minutes after departure.

The Canadian TSB reported maintenance replaced the right hand DC power center.

Metars:
KSAN 281651Z VRB03KT 6SM BR FEW010 BKN013 21/17 A2992 RMK AO2 SLP131 T02060167=
KSAN 281551Z 00000KT 4SM BR FEW007 OVC010 20/17 A2991 RMK AO2 SLP129 T02000167=
KSAN 281525Z 00000KT 4SM BR FEW007 OVC010 19/17 A2991 RMK AO2 T01940167=
KSAN 281451Z 00000KT 5SM BR FEW007 OVC009 19/17 A2991 RMK AO2 SLP127 T01940167 51009=
KSAN 281351Z 30003KT 5SM BR OVC007 19/17 A2990 RMK AO2 SLP124 T01940167=
KSAN 281251Z 35003KT 6SM BR OVC008 19/17 A2989 RMK AO2 SLP120 T01940167=
KSAN 281151Z 25003KT 6SM BR OVC008 19/17 A2988 RMK AO2 SLP117 T01940172 10194 20194 56010=
KSAN 281051Z 23003KT 6SM BR OVC008 19/17 A2988 RMK AO2 SLP118 T01940172=
KSAN 280951Z 00000KT 6SM BR OVC007 19/17 A2990 RMK AO2 SLP124 CIG 006V008 T01940172=
Aircraft Registration Data
Registration mark
C-FJZD
Country of Registration
Canada
Date of Registration
Bmmgblpnpphife Subscribe to unlock
Certification Basis
BgjiepjedgmjfAbddmjnAlhedehq mcpfnbjdjqlklh mm Subscribe to unlock
TCDS Ident. No.
Manufacturer
Bombardier
Aircraft Model / Type
CL-600-2D24 (Series 900)
ICAO Aircraft Type
CRJ9
Year of Manufacture
Serial Number
Aircraft Address / Mode S Code (HEX)
Maximum Take off Mass (MTOM) [kg]
Engine Count
Engine Type
Main Owner
Bgq c pdgcgblhqefkpcclkhg qncedgdbkhblcmgAceeclhe fq hdmhqgklbmdpgidjmhklpg ecgimp fnjhpnhlhAqgghffdAbdkhjlppm fi Subscribe to unlock

Aircraft registration data reproduced and distributed with the permission of the Government of Canada.

Incident Facts

Date of incident
Sep 28, 2018

Classification
Incident

Flight number
QK-8667

Aircraft Registration
C-FJZD

ICAO Type Designator
CRJ9

Airport ICAO Code
KSAN

This article is published under license from Avherald.com. © of text by Avherald.com.
Article source

You can read 2 more free articles without a subscription.

Subscribe now and continue reading without any limits!

Are you a subscriber? Login
Subscribe

Read unlimited articles and receive our daily update briefing. Gain better insights into what is happening in commercial aviation safety.

Send tip

Support AeroInside by sending a small tip amount.

Related articles

Newest articles

Subscribe today

Are you researching aviation incidents? Get access to AeroInside Insights, unlimited read access and receive the daily newsletter.

Pick your plan and subscribe

Partner

Blockaviation logo

A new way to document and demonstrate airworthiness compliance and aircraft value. Find out more.

ELITE Logo

ELITE Simulation Solutions is a leading global provider of Flight Simulation Training Devices, IFR training software as well as flight controls and related services. Find out more.

Blue Altitude Logo

Your regulation partner, specialists in aviation safety and compliance; providing training, auditing, and consultancy services. Find out more.

AeroInside Blog
Popular aircraft
Airbus A320
Boeing 737-800
Boeing 737-800 MAX
Popular airlines
American Airlines
United
Delta
Air Canada
Lufthansa
British Airways